createdAt,value
2018-08-30T00:01:29.748Z,24.46
2018-08-30T00:03:56.073Z,24.39
2018-08-30T00:06:22.495Z,24.37
2018-08-30T00:08:48.893Z,24.39
2018-08-30T00:11:15.238Z,24.44
2018-08-30T00:13:41.549Z,24.39
2018-08-30T00:16:07.902Z,24.41
2018-08-30T00:18:34.236Z,24.39
2018-08-30T00:21:00.567Z,24.33
2018-08-30T00:23:26.899Z,24.34
2018-08-30T00:25:53.240Z,24.33
2018-08-30T00:28:19.600Z,24.36
2018-08-30T00:30:45.958Z,24.27
2018-08-30T00:33:12.323Z,24.27
2018-08-30T00:35:38.654Z,24.28
2018-08-30T00:38:04.987Z,24.29
2018-08-30T00:40:31.419Z,24.29
2018-08-30T00:42:57.764Z,24.26
2018-08-30T00:45:24.107Z,24.29
2018-08-30T00:47:50.493Z,24.25
2018-08-30T00:50:16.834Z,24.22
2018-08-30T00:52:43.203Z,24.19
2018-08-30T00:55:09.536Z,24.23
2018-08-30T00:57:35.863Z,24.23
2018-08-30T01:00:02.203Z,24.23
2018-08-30T01:02:28.557Z,24.17
2018-08-30T01:04:54.898Z,24.04
2018-08-30T01:07:21.254Z,24.05
2018-08-30T01:09:47.590Z,24.02
2018-08-30T01:12:13.926Z,23.96
2018-08-30T01:14:40.296Z,23.91
2018-08-30T01:17:06.653Z,23.86
2018-08-30T01:19:33.007Z,23.79
2018-08-30T01:21:59.363Z,23.81
2018-08-30T01:24:25.744Z,23.74
2018-08-30T01:26:52.083Z,23.76
2018-08-30T01:29:18.416Z,23.76
2018-08-30T01:31:44.743Z,23.74
2018-08-30T01:34:11.072Z,23.73
2018-08-30T01:36:37.403Z,23.72
2018-08-30T01:39:03.720Z,23.67
2018-08-30T01:41:30.056Z,23.66
2018-08-30T01:43:56.388Z,23.70
2018-08-30T01:46:22.767Z,23.65
2018-08-30T01:48:49.112Z,23.67
2018-08-30T01:51:15.490Z,23.67
2018-08-30T01:53:41.826Z,23.67
2018-08-30T01:56:08.182Z,23.61
2018-08-30T01:58:34.503Z,23.61
2018-08-30T02:01:00.833Z,23.64
2018-08-30T02:03:27.193Z,23.63
2018-08-30T02:05:53.524Z,23.58
2018-08-30T02:08:19.881Z,23.64
2018-08-30T02:10:46.196Z,23.56
2018-08-30T02:13:12.537Z,23.55
2018-08-30T02:15:38.880Z,23.53
2018-08-30T02:18:05.243Z,23.56
2018-08-30T02:20:31.608Z,23.52
2018-08-30T02:22:57.972Z,23.53
2018-08-30T02:25:24.333Z,23.48
2018-08-30T02:27:50.664Z,23.55
2018-08-30T02:30:17.024Z,23.49
2018-08-30T02:32:43.355Z,23.47
2018-08-30T02:35:09.683Z,23.46
2018-08-30T02:37:36.032Z,23.47
2018-08-30T02:40:02.407Z,23.44
2018-08-30T02:42:28.748Z,23.49
2018-08-30T02:44:55.095Z,23.43
2018-08-30T02:47:21.426Z,23.47
2018-08-30T02:49:47.809Z,23.45
2018-08-30T02:52:14.136Z,23.44
2018-08-30T02:54:40.468Z,23.43
2018-08-30T02:57:06.832Z,23.39
2018-08-30T02:59:33.193Z,23.38
2018-08-30T03:01:59.531Z,23.43
2018-08-30T03:04:25.851Z,23.36
2018-08-30T03:06:52.195Z,23.36
2018-08-30T03:09:18.637Z,23.40
2018-08-30T03:11:44.982Z,23.42
2018-08-30T03:14:11.325Z,23.47
2018-08-30T03:16:37.686Z,23.53
2018-08-30T03:19:04.016Z,23.55
2018-08-30T03:21:30.356Z,23.58
2018-08-30T03:23:56.718Z,23.59
2018-08-30T03:26:23.120Z,23.63
2018-08-30T03:28:49.501Z,23.67
2018-08-30T03:31:15.835Z,23.63
2018-08-30T03:33:42.163Z,23.66
2018-08-30T03:36:08.547Z,23.67
2018-08-30T03:38:34.880Z,23.73
2018-08-30T03:41:01.286Z,23.76
2018-08-30T03:43:27.639Z,23.74
2018-08-30T03:45:54.050Z,23.75
2018-08-30T03:48:20.403Z,23.72
2018-08-30T03:50:46.784Z,23.75
2018-08-30T03:53:13.172Z,23.77
2018-08-30T03:55:39.523Z,23.83
2018-08-30T03:58:05.853Z,23.78
2018-08-30T04:00:32.231Z,23.79
2018-08-30T04:02:58.604Z,23.79
2018-08-30T04:05:24.929Z,23.79
2018-08-30T04:07:51.332Z,23.81
2018-08-30T04:10:17.738Z,23.82
2018-08-30T04:12:44.128Z,23.86
2018-08-30T04:15:10.457Z,23.82
2018-08-30T04:17:36.861Z,23.86
2018-08-30T04:20:03.187Z,23.90
2018-08-30T04:22:29.695Z,23.90
2018-08-30T04:24:56.059Z,23.96
2018-08-30T04:27:22.436Z,23.97
2018-08-30T04:29:48.840Z,23.98
2018-08-30T04:32:15.180Z,24.01
2018-08-30T04:34:41.510Z,24.03
2018-08-30T04:37:07.872Z,24.05
2018-08-30T04:39:34.198Z,24.21
2018-08-30T04:42:00.527Z,24.20
2018-08-30T04:44:26.901Z,24.25
2018-08-30T04:46:53.236Z,24.24
2018-08-30T04:49:19.556Z,24.30
2018-08-30T04:51:45.929Z,24.34
2018-08-30T04:54:12.355Z,24.36
2018-08-30T04:56:38.730Z,24.38
2018-08-30T04:59:05.148Z,24.41
2018-08-30T05:01:31.487Z,24.39
2018-08-30T05:03:57.863Z,24.41
2018-08-30T05:06:24.215Z,24.43
2018-08-30T05:08:50.576Z,24.45
2018-08-30T05:11:16.957Z,24.46
2018-08-30T05:13:43.372Z,24.51
2018-08-30T05:16:09.762Z,24.52
2018-08-30T05:18:36.120Z,24.55
2018-08-30T05:21:02.509Z,24.57
2018-08-30T05:23:28.858Z,24.53
2018-08-30T05:25:55.261Z,24.64
2018-08-30T05:28:21.610Z,24.58
2018-08-30T05:30:47.984Z,24.53
2018-08-30T05:33:14.370Z,24.52
2018-08-30T05:35:40.783Z,24.59
2018-08-30T05:38:07.184Z,24.56
2018-08-30T05:40:33.603Z,24.61
2018-08-30T05:42:59.931Z,24.62
2018-08-30T05:45:26.304Z,24.68
2018-08-30T05:47:52.660Z,24.71
2018-08-30T05:50:19.036Z,24.71
2018-08-30T05:52:45.394Z,24.76
2018-08-30T05:55:11.770Z,24.81
2018-08-30T05:57:38.143Z,24.98
2018-08-30T06:00:04.516Z,25.07
2018-08-30T06:02:30.920Z,25.12
2018-08-30T06:04:57.261Z,25.08
2018-08-30T06:07:23.752Z,25.13
2018-08-30T06:09:50.076Z,25.14
2018-08-30T06:12:16.535Z,25.18
2018-08-30T06:14:42.908Z,25.27
2018-08-30T06:17:09.281Z,25.25
2018-08-30T06:19:35.689Z,25.30
2018-08-30T06:22:02.075Z,25.34
2018-08-30T06:24:28.487Z,25.39
2018-08-30T06:26:54.885Z,25.45
2018-08-30T06:29:21.268Z,25.39
2018-08-30T06:31:47.615Z,25.43
2018-08-30T06:34:13.964Z,25.48
2018-08-30T06:36:40.371Z,25.56
2018-08-30T06:39:06.775Z,25.61
2018-08-30T06:41:33.121Z,25.63
2018-08-30T06:43:59.533Z,25.63
2018-08-30T06:46:25.968Z,25.71
2018-08-30T06:48:52.408Z,25.74
2018-08-30T06:51:18.727Z,25.69
2018-08-30T06:53:45.046Z,25.85
2018-08-30T06:56:11.449Z,25.82
2018-08-30T06:58:37.802Z,25.88
2018-08-30T07:01:04.174Z,25.95
2018-08-30T07:03:30.554Z,25.94
2018-08-30T07:05:56.925Z,25.99
2018-08-30T07:08:23.386Z,25.95
2018-08-30T07:10:49.821Z,26.01
2018-08-30T07:13:16.224Z,26.05
2018-08-30T07:15:42.656Z,26.05
2018-08-30T07:18:09.005Z,26.07
2018-08-30T07:20:35.419Z,26.06
2018-08-30T07:23:01.840Z,26.17
2018-08-30T07:25:28.219Z,26.19
2018-08-30T07:27:54.699Z,26.17
2018-08-30T07:30:21.149Z,26.23
2018-08-30T07:32:47.542Z,26.21
2018-08-30T07:35:13.985Z,26.26
2018-08-30T07:37:40.342Z,26.28
2018-08-30T07:40:06.744Z,26.29
2018-08-30T07:42:33.101Z,26.31
2018-08-30T07:44:59.496Z,26.36
2018-08-30T07:47:25.863Z,26.27
2018-08-30T07:49:52.298Z,26.38
2018-08-30T07:52:18.638Z,26.36
2018-08-30T07:54:44.971Z,26.43
2018-08-30T07:57:11.363Z,26.41
2018-08-30T07:59:37.791Z,26.40
2018-08-30T08:02:04.225Z,26.36
2018-08-30T08:04:30.856Z,26.41
2018-08-30T08:06:57.463Z,26.49
2018-08-30T08:09:23.863Z,26.50
2018-08-30T08:11:50.319Z,26.54
2018-08-30T08:14:16.727Z,26.53
2018-08-30T08:16:43.166Z,26.53
2018-08-30T08:19:09.582Z,26.44
2018-08-30T08:21:36.008Z,26.53
2018-08-30T08:24:02.410Z,26.51
2018-08-30T08:26:28.777Z,26.52
2018-08-30T08:28:55.195Z,26.48
2018-08-30T08:31:21.607Z,26.53
2018-08-30T08:33:47.944Z,26.54
2018-08-30T08:36:14.311Z,26.51
2018-08-30T08:38:40.958Z,26.53
2018-08-30T08:41:07.319Z,26.35
2018-08-30T08:43:33.826Z,26.32
2018-08-30T08:46:00.179Z,26.26
2018-08-30T08:48:26.539Z,26.44
2018-08-30T08:50:52.982Z,26.41
2018-08-30T08:53:19.366Z,26.39
2018-08-30T08:55:45.730Z,26.41
2018-08-30T08:58:12.083Z,26.41
2018-08-30T09:00:38.540Z,26.43
2018-08-30T09:03:04.896Z,26.52
2018-08-30T09:05:31.244Z,26.50
2018-08-30T09:07:57.720Z,26.52
2018-08-30T09:10:24.137Z,26.60
2018-08-30T09:12:50.536Z,26.55
2018-08-30T09:15:16.885Z,26.56
2018-08-30T09:17:43.287Z,26.63
2018-08-30T09:20:09.625Z,26.66
2018-08-30T09:22:36.001Z,26.64
2018-08-30T09:25:02.325Z,26.62
2018-08-30T09:27:28.693Z,26.63
2018-08-30T09:29:55.109Z,26.64
2018-08-30T09:32:21.555Z,26.67
2018-08-30T09:34:47.929Z,26.70
2018-08-30T09:37:14.287Z,26.69
2018-08-30T09:39:41.497Z,26.73
2018-08-30T09:42:07.868Z,26.70
2018-08-30T09:44:34.329Z,26.66
2018-08-30T09:47:00.815Z,26.73
2018-08-30T09:49:27.319Z,26.71
2018-08-30T09:51:53.729Z,26.77
2018-08-30T09:54:20.066Z,26.78
2018-08-30T09:56:46.473Z,26.78
2018-08-30T09:59:12.878Z,26.84
2018-08-30T10:01:39.259Z,26.85
2018-08-30T10:04:05.756Z,26.87
2018-08-30T10:06:32.097Z,26.76
2018-08-30T10:08:58.415Z,26.80
2018-08-30T10:11:24.825Z,26.79
2018-08-30T10:13:51.153Z,26.86
2018-08-30T10:16:18.536Z,26.81
2018-08-30T10:18:45.017Z,26.79
2018-08-30T10:21:11.416Z,26.85
2018-08-30T10:23:37.870Z,26.83
2018-08-30T10:26:04.202Z,26.85
2018-08-30T10:28:30.529Z,26.83
2018-08-30T10:30:56.859Z,26.78
2018-08-30T10:33:23.188Z,26.79
2018-08-30T10:35:49.564Z,26.83
2018-08-30T10:38:15.986Z,26.88
2018-08-30T10:40:42.350Z,26.86
2018-08-30T10:43:08.685Z,26.85
2018-08-30T10:45:37.096Z,26.86
2018-08-30T10:48:03.730Z,26.84
2018-08-30T10:50:30.094Z,26.81
2018-08-30T10:52:56.440Z,26.83
2018-08-30T10:55:22.825Z,26.86
2018-08-30T10:57:49.257Z,26.91
2018-08-30T11:00:15.591Z,26.87
2018-08-30T11:02:41.988Z,26.94
2018-08-30T11:05:08.326Z,26.91
2018-08-30T11:07:35.664Z,26.91
2018-08-30T11:10:02.109Z,26.90
2018-08-30T11:12:28.485Z,26.95
2018-08-30T11:14:54.851Z,26.92
2018-08-30T11:17:21.203Z,26.96
2018-08-30T11:19:47.641Z,26.85
2018-08-30T11:22:14.037Z,26.93
2018-08-30T11:24:40.443Z,26.99
2018-08-30T11:27:06.834Z,26.92
2018-08-30T11:29:33.185Z,26.94
2018-08-30T11:31:59.537Z,26.92
2018-08-30T11:34:25.895Z,26.96
2018-08-30T11:36:52.278Z,27.00
2018-08-30T11:39:18.600Z,26.91
2018-08-30T11:41:45.044Z,26.96
2018-08-30T11:44:11.372Z,26.96
2018-08-30T11:46:37.723Z,27.00
2018-08-30T11:49:04.091Z,26.96
2018-08-30T11:51:30.505Z,26.97
2018-08-30T11:53:56.871Z,26.91
2018-08-30T11:56:23.258Z,26.94
2018-08-30T11:58:49.672Z,27.00
2018-08-30T12:01:16.083Z,26.95
2018-08-30T12:03:42.425Z,26.97
2018-08-30T12:06:08.758Z,27.01
2018-08-30T12:08:35.123Z,26.98
2018-08-30T12:11:01.613Z,27.02
2018-08-30T12:13:27.935Z,27.02
2018-08-30T12:15:54.275Z,26.95
2018-08-30T12:18:20.619Z,27.00
2018-08-30T12:20:47.243Z,27.00
2018-08-30T12:23:13.944Z,27.02
2018-08-30T12:25:40.300Z,27.08
2018-08-30T12:28:06.634Z,27.03
2018-08-30T12:30:32.971Z,27.11
2018-08-30T12:32:59.382Z,27.07
2018-08-30T12:35:26.493Z,27.09
2018-08-30T12:37:52.852Z,27.15
2018-08-30T12:40:19.318Z,27.18
2018-08-30T12:42:45.702Z,27.14
2018-08-30T12:45:12.096Z,27.09
2018-08-30T12:47:38.468Z,27.18
2018-08-30T12:50:04.915Z,27.13
2018-08-30T12:52:31.362Z,27.14
2018-08-30T12:54:57.770Z,27.18
2018-08-30T12:57:24.202Z,27.22
2018-08-30T12:59:50.487Z,27.18
2018-08-30T13:02:17.055Z,27.18
2018-08-30T13:04:43.603Z,27.14
2018-08-30T13:07:09.870Z,27.14
2018-08-30T13:09:36.300Z,27.13
2018-08-30T13:12:03.045Z,27.17
2018-08-30T13:14:29.182Z,27.19
2018-08-30T13:16:55.678Z,27.26
2018-08-30T13:19:23.047Z,27.20
2018-08-30T13:21:49.370Z,27.22
2018-08-30T13:24:15.788Z,27.23
2018-08-30T13:26:42.086Z,27.22
2018-08-30T13:29:08.505Z,27.21
2018-08-30T13:31:34.922Z,27.19
2018-08-30T13:34:01.394Z,27.24
2018-08-30T13:36:27.898Z,27.21
2018-08-30T13:38:54.261Z,27.23
2018-08-30T13:41:20.960Z,27.24
2018-08-30T13:43:47.107Z,27.23
2018-08-30T13:46:13.343Z,27.28
2018-08-30T13:48:39.935Z,27.31
2018-08-30T13:51:06.277Z,27.31
2018-08-30T13:53:32.762Z,27.32
2018-08-30T13:55:59.158Z,27.25
2018-08-30T13:58:25.504Z,27.17
2018-08-30T14:00:52.016Z,27.20
2018-08-30T14:03:18.149Z,27.25
2018-08-30T14:05:44.682Z,27.25
2018-08-30T14:08:11.179Z,27.17
2018-08-30T14:10:37.486Z,27.13
2018-08-30T14:13:03.824Z,27.18
2018-08-30T14:15:30.348Z,27.18
2018-08-30T14:17:56.430Z,27.19
2018-08-30T14:20:22.770Z,27.10
2018-08-30T14:22:49.143Z,27.14
2018-08-30T14:25:15.613Z,27.14
2018-08-30T14:27:41.984Z,27.17
2018-08-30T14:30:08.367Z,27.17
2018-08-30T14:32:34.698Z,27.19
2018-08-30T14:35:01.028Z,27.15
2018-08-30T14:37:27.494Z,27.16
2018-08-30T14:39:53.750Z,27.20
2018-08-30T14:42:20.087Z,27.08
2018-08-30T14:44:46.443Z,27.08
2018-08-30T14:47:13.022Z,27.15
2018-08-30T14:49:39.223Z,27.12
2018-08-30T14:52:05.589Z,27.02
2018-08-30T14:54:32.026Z,27.12
2018-08-30T14:56:58.320Z,27.10
2018-08-30T14:59:24.828Z,27.04
2018-08-30T15:01:51.028Z,27.06
2018-08-30T15:04:17.404Z,27.02
2018-08-30T15:06:43.787Z,27.04
2018-08-30T15:09:10.168Z,27.02
2018-08-30T15:11:36.617Z,27.08
2018-08-30T15:14:02.955Z,26.98
2018-08-30T15:16:29.386Z,27.06
2018-08-30T15:18:55.802Z,26.98
2018-08-30T15:21:22.109Z,26.98
2018-08-30T15:23:48.472Z,26.95
2018-08-30T15:26:14.895Z,27.02
2018-08-30T15:28:41.198Z,26.95
2018-08-30T15:31:07.573Z,26.96
2018-08-30T15:33:33.934Z,26.91
2018-08-30T15:36:00.281Z,26.90
2018-08-30T15:38:26.781Z,26.85
2018-08-30T15:40:53.150Z,26.88
2018-08-30T15:43:19.544Z,26.89
2018-08-30T15:45:45.926Z,26.81
2018-08-30T15:48:12.510Z,26.82
2018-08-30T15:50:38.763Z,26.82
2018-08-30T15:53:05.118Z,26.90
2018-08-30T15:55:31.518Z,26.86
2018-08-30T15:57:57.870Z,26.79
2018-08-30T16:00:24.237Z,26.79
2018-08-30T16:02:50.610Z,26.86
2018-08-30T16:05:17.148Z,26.71
2018-08-30T16:07:43.400Z,26.78
2018-08-30T16:10:09.805Z,26.79
2018-08-30T16:12:36.142Z,26.80
2018-08-30T16:15:02.509Z,26.80
2018-08-30T16:17:28.851Z,26.83
2018-08-30T16:19:55.181Z,26.74
2018-08-30T16:22:21.530Z,26.73
2018-08-30T16:24:47.997Z,26.82
2018-08-30T16:27:14.308Z,26.81
2018-08-30T16:29:40.652Z,26.81
2018-08-30T16:32:07.004Z,26.81
2018-08-30T16:34:33.375Z,26.80
2018-08-30T16:36:59.736Z,26.79
2018-08-30T16:39:26.067Z,26.81
2018-08-30T16:41:52.392Z,26.81
2018-08-30T16:44:18.727Z,26.81
2018-08-30T16:46:45.067Z,26.80
2018-08-30T16:49:11.386Z,26.79
2018-08-30T16:51:37.716Z,26.78
2018-08-30T16:54:04.072Z,26.65
2018-08-30T16:56:30.405Z,26.61
2018-08-30T16:58:56.754Z,26.59
2018-08-30T17:01:23.110Z,26.63
2018-08-30T17:03:49.519Z,26.60
2018-08-30T17:06:15.944Z,26.50
2018-08-30T17:08:42.408Z,26.48
2018-08-30T17:11:09.431Z,26.48
2018-08-30T17:13:35.753Z,26.51
2018-08-30T17:16:02.130Z,26.52
2018-08-30T17:18:28.489Z,26.56
2018-08-30T17:20:54.821Z,26.51
2018-08-30T17:23:21.175Z,26.55
2018-08-30T17:25:47.627Z,26.56
2018-08-30T17:28:14.115Z,26.57
2018-08-30T17:30:40.472Z,26.59
2018-08-30T17:33:06.869Z,26.56
2018-08-30T17:35:33.273Z,26.58
2018-08-30T17:37:59.626Z,26.54
2018-08-30T17:40:26.031Z,26.58
2018-08-30T17:42:52.359Z,26.56
2018-08-30T17:45:18.831Z,26.54
2018-08-30T17:47:45.133Z,26.55
2018-08-30T17:50:11.548Z,26.55
2018-08-30T17:52:37.946Z,26.56
2018-08-30T17:55:04.295Z,26.55
2018-08-30T17:57:30.723Z,26.53
2018-08-30T17:59:57.124Z,26.53
2018-08-30T18:02:23.633Z,26.51
2018-08-30T18:04:50.022Z,26.51
2018-08-30T18:07:16.453Z,26.51
2018-08-30T18:09:42.734Z,26.52
2018-08-30T18:12:09.147Z,26.48
2018-08-30T18:14:35.511Z,26.46
2018-08-30T18:17:01.889Z,26.48
2018-08-30T18:19:28.491Z,26.46
2018-08-30T18:21:54.825Z,26.44
2018-08-30T18:24:21.326Z,26.44
2018-08-30T18:26:47.641Z,26.43
2018-08-30T18:29:14.041Z,26.46
2018-08-30T18:31:40.386Z,26.43
2018-08-30T18:34:06.830Z,26.43
2018-08-30T18:36:33.699Z,26.40
2018-08-30T18:39:00.051Z,26.39
2018-08-30T18:41:26.544Z,26.40
2018-08-30T18:43:52.877Z,26.38
2018-08-30T18:46:19.254Z,26.38
2018-08-30T18:48:45.597Z,26.36
2018-08-30T18:51:12.009Z,26.35
2018-08-30T18:53:38.391Z,26.36
2018-08-30T18:56:04.735Z,26.34
2018-08-30T18:58:31.064Z,26.32
2018-08-30T19:00:57.396Z,26.34
2018-08-30T19:03:23.719Z,26.32
2018-08-30T19:05:50.139Z,26.31
2018-08-30T19:08:16.572Z,26.30
2018-08-30T19:10:43.072Z,26.29
2018-08-30T19:13:09.405Z,26.28
2018-08-30T19:15:35.778Z,26.28
2018-08-30T19:18:02.134Z,26.28
2018-08-30T19:20:28.547Z,26.26
2018-08-30T19:22:54.942Z,26.26
2018-08-30T19:25:21.287Z,26.24
2018-08-30T19:27:47.823Z,26.22
2018-08-30T19:30:14.157Z,26.23
2018-08-30T19:32:40.653Z,26.23
2018-08-30T19:35:06.980Z,26.22
2018-08-30T19:37:33.488Z,26.21
2018-08-30T19:39:59.893Z,26.19
2018-08-30T19:42:26.301Z,26.19
2018-08-30T19:44:52.711Z,26.17
2018-08-30T19:47:19.083Z,26.17
2018-08-30T19:49:45.440Z,26.17
2018-08-30T19:52:11.807Z,26.15
2018-08-30T19:54:38.216Z,26.11
2018-08-30T19:57:04.625Z,26.11
2018-08-30T19:59:30.967Z,26.11
2018-08-30T20:01:57.366Z,26.09
2018-08-30T20:04:23.701Z,26.08
2018-08-30T20:06:50.047Z,26.08
2018-08-30T20:09:16.448Z,26.08
2018-08-30T20:11:42.767Z,26.08
2018-08-30T20:14:09.152Z,26.05
2018-08-30T20:16:35.516Z,26.06
2018-08-30T20:19:01.901Z,26.05
2018-08-30T20:21:28.253Z,26.04
2018-08-30T20:23:54.595Z,26.05
2018-08-30T20:26:20.973Z,26.02
2018-08-30T20:28:47.319Z,26.01
2018-08-30T20:31:13.722Z,25.99
2018-08-30T20:33:40.163Z,26.00
2018-08-30T20:36:06.543Z,26.00
2018-08-30T20:38:32.879Z,25.98
2018-08-30T20:40:59.214Z,25.96
2018-08-30T20:43:25.571Z,25.96
2018-08-30T20:45:51.934Z,25.94
2018-08-30T20:48:18.255Z,25.93
2018-08-30T20:50:44.647Z,25.94
2018-08-30T20:53:10.979Z,25.94
2018-08-30T20:55:37.359Z,25.91
2018-08-30T20:58:03.726Z,25.90
2018-08-30T21:00:30.062Z,25.87
2018-08-30T21:02:56.404Z,25.88
2018-08-30T21:05:22.770Z,25.89
2018-08-30T21:07:49.177Z,25.87
2018-08-30T21:10:15.604Z,25.83
2018-08-30T21:12:42.019Z,25.80
2018-08-30T21:15:08.344Z,25.81
2018-08-30T21:17:34.731Z,25.82
2018-08-30T21:20:01.111Z,25.81
2018-08-30T21:22:27.441Z,25.79
2018-08-30T21:24:53.791Z,25.78
2018-08-30T21:27:20.119Z,25.76
2018-08-30T21:29:46.468Z,25.74
2018-08-30T21:32:12.838Z,25.74
2018-08-30T21:34:39.232Z,25.74
2018-08-30T21:37:05.601Z,25.73
2018-08-30T21:39:32.026Z,25.71
2018-08-30T21:41:58.411Z,25.71
2018-08-30T21:44:24.763Z,25.69
2018-08-30T21:46:51.107Z,25.69
2018-08-30T21:49:17.512Z,25.68
2018-08-30T21:51:43.872Z,25.66
2018-08-30T21:54:10.305Z,25.64
2018-08-30T21:56:36.647Z,25.65
2018-08-30T21:59:03.063Z,25.64
2018-08-30T22:01:29.420Z,25.62
2018-08-30T22:03:55.750Z,25.62
2018-08-30T22:06:22.092Z,25.60
2018-08-30T22:08:48.441Z,25.59
2018-08-30T22:11:14.861Z,25.58
2018-08-30T22:13:41.198Z,25.58
2018-08-30T22:16:07.579Z,25.57
2018-08-30T22:18:33.923Z,25.58
2018-08-30T22:21:00.243Z,25.57
2018-08-30T22:23:26.607Z,25.58
2018-08-30T22:25:52.936Z,25.52
2018-08-30T22:28:19.491Z,25.49
2018-08-30T22:30:45.899Z,25.50
2018-08-30T22:33:12.328Z,25.49
2018-08-30T22:35:38.725Z,25.49
2018-08-30T22:38:05.107Z,25.48
2018-08-30T22:40:31.544Z,25.48
2018-08-30T22:42:57.873Z,25.45
2018-08-30T22:45:24.234Z,25.43
2018-08-30T22:47:50.624Z,25.45
2018-08-30T22:50:17.006Z,25.45
2018-08-30T22:52:43.545Z,25.42
2018-08-30T22:55:09.985Z,25.43
2018-08-30T22:57:36.353Z,25.42
2018-08-30T23:00:02.742Z,25.37
2018-08-30T23:02:29.085Z,25.38
2018-08-30T23:04:55.476Z,25.38
2018-08-30T23:07:21.796Z,25.37
2018-08-30T23:09:48.121Z,25.35
2018-08-30T23:12:14.456Z,25.35
2018-08-30T23:14:40.809Z,25.34
2018-08-30T23:17:07.193Z,25.31
2018-08-30T23:19:33.576Z,25.31
2018-08-30T23:21:59.959Z,25.30
2018-08-30T23:24:26.300Z,25.30
2018-08-30T23:26:52.635Z,25.29
2018-08-30T23:29:18.963Z,25.25
2018-08-30T23:31:45.344Z,25.25
2018-08-30T23:34:11.766Z,25.25
2018-08-30T23:36:38.107Z,25.25
2018-08-30T23:39:04.489Z,25.26
2018-08-30T23:41:30.823Z,25.23
2018-08-30T23:43:57.163Z,25.23
2018-08-30T23:46:23.536Z,25.21
2018-08-30T23:48:49.876Z,25.20
2018-08-30T23:51:16.273Z,25.18
2018-08-30T23:53:42.675Z,25.18
2018-08-30T23:56:09.019Z,25.14
2018-08-30T23:58:35.424Z,25.16
